Aviation Digital Data Service (ADDS)

Output produced by METARs form (1739 UTC 27 May 2017)
found at http://www.aviationweather.gov/adds/metars/
 
FWCL 271600Z 00000KT 9999 FEW035 25/14 Q1018 NOSIG
TAF FWCL 271500Z 2718/2824 15006KT CAVOK 
     BECMG 2807/2809 09008KT 9999 FEW020 
     FM281100 07004KT 9999 SCT030 
     BECMG 2816/2818 22010KT CAVOK